createdAt,value
2018-06-09T00:00:27.455Z,93
2018-06-09T00:01:27.499Z,93
2018-06-09T00:02:27.459Z,93
2018-06-09T00:03:27.457Z,93
2018-06-09T00:04:27.729Z,93
2018-06-09T00:05:27.426Z,93
2018-06-09T00:06:27.528Z,93
2018-06-09T00:07:27.473Z,93
2018-06-09T00:08:27.446Z,93
2018-06-09T00:09:27.704Z,93
2018-06-09T00:10:27.537Z,93
2018-06-09T00:11:27.756Z,93
2018-06-09T00:12:27.452Z,93
2018-06-09T00:13:27.438Z,93
2018-06-09T00:14:27.672Z,93
2018-06-09T00:15:27.500Z,93
2018-06-09T00:16:27.440Z,93
2018-06-09T00:17:27.477Z,93
2018-06-09T00:18:27.461Z,93
2018-06-09T00:19:27.466Z,92
2018-06-09T00:20:27.801Z,92
2018-06-09T00:21:27.475Z,92
2018-06-09T00:22:27.507Z,92
2018-06-09T00:23:27.798Z,92
2018-06-09T00:24:27.777Z,92
2018-06-09T00:25:27.827Z,92
2018-06-09T00:26:27.548Z,92
2018-06-09T00:27:27.543Z,93
2018-06-09T00:28:27.476Z,93
2018-06-09T00:29:27.507Z,93
2018-06-09T00:30:27.477Z,93
2018-06-09T00:31:27.487Z,93
2018-06-09T00:32:27.771Z,93
2018-06-09T00:33:27.481Z,93
2018-06-09T00:34:27.626Z,93
2018-06-09T00:35:27.546Z,93
2018-06-09T00:36:27.484Z,93
2018-06-09T00:37:27.749Z,93
2018-06-09T00:38:27.486Z,93
2018-06-09T00:39:27.520Z,93
2018-06-09T00:40:27.573Z,93
2018-06-09T00:41:27.532Z,93
2018-06-09T00:42:27.794Z,94
2018-06-09T00:43:27.517Z,94
2018-06-09T00:44:27.772Z,94
2018-06-09T00:45:27.523Z,94
2018-06-09T00:46:27.542Z,94
2018-06-09T00:47:27.852Z,94
2018-06-09T00:48:27.444Z,94
2018-06-09T00:49:27.501Z,94
2018-06-09T00:50:27.504Z,94
2018-06-09T00:51:27.790Z,94
2018-06-09T00:52:27.505Z,94
2018-06-09T00:53:27.535Z,94
2018-06-09T00:54:27.521Z,94
2018-06-09T00:55:27.884Z,94
2018-06-09T00:56:27.507Z,94
2018-06-09T00:57:27.800Z,94
2018-06-09T00:58:27.542Z,94
2018-06-09T00:59:27.533Z,94
2018-06-09T01:00:27.525Z,94
2018-06-09T01:01:27.861Z,94
2018-06-09T01:02:27.584Z,94
2018-06-09T01:03:27.504Z,94
2018-06-09T01:04:27.540Z,94
2018-06-09T01:05:27.530Z,94
2018-06-09T01:06:27.600Z,94
2018-06-09T01:07:27.557Z,94
2018-06-09T01:08:27.608Z,94
2018-06-09T01:09:27.862Z,94
2018-06-09T01:10:27.640Z,94
2018-06-09T01:11:27.919Z,94
2018-06-09T01:12:27.612Z,94
2018-06-09T01:13:27.590Z,94
2018-06-09T01:14:27.553Z,94
2018-06-09T01:15:27.565Z,94
2018-06-09T01:16:27.605Z,94
2018-06-09T01:17:27.560Z,94
2018-06-09T01:18:27.619Z,94
2018-06-09T01:19:27.574Z,94
2018-06-09T01:20:27.983Z,94
2018-06-09T01:21:27.617Z,94
2018-06-09T01:22:27.846Z,94
2018-06-09T01:23:27.597Z,95
2018-06-09T01:24:27.593Z,95
2018-06-09T01:25:27.661Z,95
2018-06-09T01:26:27.626Z,95
2018-06-09T01:27:27.880Z,95
2018-06-09T01:28:27.541Z,95
2018-06-09T01:29:27.592Z,95
2018-06-09T01:30:27.616Z,95
2018-06-09T01:31:27.659Z,95
2018-06-09T01:32:27.612Z,95
2018-06-09T01:33:27.615Z,95
2018-06-09T01:34:27.622Z,95
2018-06-09T01:35:27.584Z,95
2018-06-09T01:36:27.922Z,95
2018-06-09T01:37:27.573Z,95
2018-06-09T01:38:27.611Z,95
2018-06-09T01:39:27.611Z,95
2018-06-09T01:40:27.664Z,95
2018-06-09T01:41:27.663Z,95
2018-06-09T01:42:27.625Z,95
2018-06-09T01:43:27.892Z,95
2018-06-09T01:44:27.931Z,95
2018-06-09T01:45:27.904Z,95
2018-06-09T01:46:27.672Z,95
2018-06-09T01:47:27.666Z,95
2018-06-09T01:48:27.603Z,95
2018-06-09T01:49:27.647Z,95
2018-06-09T01:50:27.869Z,95
2018-06-09T01:51:27.590Z,95
2018-06-09T01:52:27.661Z,95
2018-06-09T01:53:27.603Z,95
2018-06-09T01:54:27.590Z,95
2018-06-09T01:55:27.695Z,95
2018-06-09T01:56:27.600Z,95
2018-06-09T01:57:27.687Z,95
2018-06-09T01:58:27.630Z,95
2018-06-09T01:59:27.697Z,95
2018-06-09T02:00:27.611Z,95
2018-06-09T02:01:27.596Z,95
2018-06-09T02:02:27.960Z,95
2018-06-09T02:03:27.636Z,95
2018-06-09T02:04:27.914Z,95
2018-06-09T02:05:27.633Z,95
2018-06-09T02:06:27.652Z,96
2018-06-09T02:07:27.621Z,96
2018-06-09T02:08:27.595Z,96
2018-06-09T02:09:27.626Z,96
2018-06-09T02:10:27.645Z,96
2018-06-09T02:11:27.903Z,96
2018-06-09T02:12:27.946Z,96
2018-06-09T02:13:27.657Z,96
2018-06-09T02:14:27.886Z,96
2018-06-09T02:15:27.639Z,96
2018-06-09T02:16:27.896Z,96
2018-06-09T02:17:27.921Z,96
2018-06-09T02:18:27.671Z,96
2018-06-09T02:19:27.708Z,96
2018-06-09T02:20:27.939Z,96
2018-06-09T02:21:27.717Z,96
2018-06-09T02:22:27.992Z,96
2018-06-09T02:23:27.926Z,96
2018-06-09T02:24:27.909Z,96
2018-06-09T02:25:28.051Z,96
2018-06-09T02:26:27.663Z,96
2018-06-09T02:27:27.748Z,95
2018-06-09T02:28:27.943Z,95
2018-06-09T02:29:27.630Z,96
2018-06-09T02:30:27.719Z,96
2018-06-09T02:31:27.733Z,96
2018-06-09T02:32:27.668Z,96
2018-06-09T02:33:27.690Z,96
2018-06-09T02:34:29.237Z,96
2018-06-09T02:35:28.007Z,96
2018-06-09T02:36:27.716Z,96
2018-06-09T02:37:27.969Z,96
2018-06-09T02:38:27.828Z,96
2018-06-09T02:39:28.046Z,96
2018-06-09T02:40:27.762Z,96
2018-06-09T02:41:28.021Z,96
2018-06-09T02:42:27.716Z,96
2018-06-09T02:43:27.747Z,96
2018-06-09T02:44:28.060Z,96
2018-06-09T02:45:27.979Z,96
2018-06-09T02:46:27.741Z,96
2018-06-09T02:47:27.789Z,96
2018-06-09T02:48:27.693Z,96
2018-06-09T02:49:27.781Z,96
2018-06-09T02:50:28.052Z,96
2018-06-09T02:51:28.004Z,96
2018-06-09T02:52:27.758Z,96
2018-06-09T02:53:28.062Z,96
2018-06-09T02:54:27.756Z,96
2018-06-09T02:55:27.811Z,96
2018-06-09T02:56:27.745Z,96
2018-06-09T02:57:27.783Z,96
2018-06-09T02:58:27.718Z,96
2018-06-09T02:59:27.734Z,96
2018-06-09T03:00:27.774Z,96
2018-06-09T03:01:27.755Z,96
2018-06-09T03:02:27.792Z,96
2018-06-09T03:03:27.728Z,96
2018-06-09T03:04:27.782Z,96
2018-06-09T03:05:28.053Z,96
2018-06-09T03:06:27.795Z,96
2018-06-09T03:07:27.781Z,97
2018-06-09T03:08:27.733Z,97
2018-06-09T03:09:28.083Z,97
2018-06-09T03:10:28.082Z,97
2018-06-09T03:11:27.839Z,97
2018-06-09T03:12:28.044Z,97
2018-06-09T03:13:28.397Z,97
2018-06-09T03:14:27.737Z,97
2018-06-09T03:15:27.741Z,97
2018-06-09T03:16:27.744Z,97
2018-06-09T03:17:27.766Z,97
2018-06-09T03:18:27.728Z,97
2018-06-09T03:19:27.843Z,97
2018-06-09T03:20:27.733Z,97
2018-06-09T03:21:27.765Z,97
2018-06-09T03:22:27.772Z,97
2018-06-09T03:23:27.781Z,97
2018-06-09T03:24:27.770Z,97
2018-06-09T03:25:27.814Z,97
2018-06-09T03:26:27.790Z,97
2018-06-09T03:27:28.092Z,97
2018-06-09T03:28:27.832Z,97
2018-06-09T03:29:28.109Z,97
2018-06-09T03:30:27.795Z,97
2018-06-09T03:31:27.832Z,97
2018-06-09T03:32:27.858Z,97
2018-06-09T03:33:27.867Z,97
2018-06-09T03:34:27.816Z,97
2018-06-09T03:35:27.828Z,97
2018-06-09T03:36:27.859Z,97
2018-06-09T03:37:27.763Z,97
2018-06-09T03:38:27.845Z,97
2018-06-09T03:39:27.800Z,97
2018-06-09T03:40:28.173Z,97
2018-06-09T03:41:27.792Z,97
2018-06-09T03:42:27.776Z,97
2018-06-09T03:43:28.171Z,97
2018-06-09T03:44:27.821Z,97
2018-06-09T03:45:28.062Z,97
2018-06-09T03:46:27.825Z,97
2018-06-09T03:47:27.840Z,97
2018-06-09T03:48:27.883Z,97
2018-06-09T03:49:27.793Z,97
2018-06-09T03:50:27.832Z,97
2018-06-09T03:51:28.038Z,97
2018-06-09T03:52:27.854Z,97
2018-06-09T03:53:27.803Z,97
2018-06-09T03:54:27.832Z,97
2018-06-09T03:55:27.872Z,97
2018-06-09T03:56:27.860Z,97
2018-06-09T03:57:28.113Z,97
2018-06-09T03:58:27.851Z,97
2018-06-09T03:59:27.919Z,97
2018-06-09T04:00:28.185Z,97
2018-06-09T04:01:27.855Z,97
2018-06-09T04:02:28.197Z,97
2018-06-09T04:03:27.908Z,97
2018-06-09T04:04:27.908Z,97
2018-06-09T04:05:27.898Z,97
2018-06-09T04:06:27.842Z,97
2018-06-09T04:07:27.846Z,97
2018-06-09T04:08:27.882Z,97
2018-06-09T04:09:27.857Z,97
2018-06-09T04:10:27.915Z,97
2018-06-09T04:11:28.132Z,97
2018-06-09T04:12:27.929Z,97
2018-06-09T04:13:27.841Z,97
2018-06-09T04:14:27.904Z,97
2018-06-09T04:15:27.863Z,97
2018-06-09T04:16:27.895Z,97
2018-06-09T04:17:27.847Z,97
2018-06-09T04:18:27.897Z,97
2018-06-09T04:19:27.914Z,97
2018-06-09T04:20:28.194Z,97
2018-06-09T04:21:28.187Z,97
2018-06-09T04:22:27.898Z,97
2018-06-09T04:23:27.869Z,97
2018-06-09T04:24:27.934Z,97
2018-06-09T04:25:28.340Z,97
2018-06-09T04:26:27.899Z,97
2018-06-09T04:27:27.973Z,97
2018-06-09T04:28:27.963Z,97
2018-06-09T04:29:28.216Z,97
2018-06-09T04:30:27.941Z,97
2018-06-09T04:31:27.881Z,97
2018-06-09T04:32:27.931Z,97
2018-06-09T04:33:27.915Z,97
2018-06-09T04:34:27.977Z,97
2018-06-09T04:35:28.260Z,97
2018-06-09T04:36:27.917Z,97
2018-06-09T04:37:28.210Z,97
2018-06-09T04:38:27.965Z,97
2018-06-09T04:39:27.963Z,97
2018-06-09T04:40:27.983Z,97
2018-06-09T04:41:27.929Z,97
2018-06-09T04:42:27.965Z,97
2018-06-09T04:43:27.935Z,97
2018-06-09T04:44:28.011Z,97
2018-06-09T04:45:27.965Z,97
2018-06-09T04:46:27.908Z,97
2018-06-09T04:47:28.004Z,97
2018-06-09T04:48:27.993Z,97
2018-06-09T04:49:27.965Z,97
2018-06-09T04:50:28.213Z,97
2018-06-09T04:51:27.964Z,97
2018-06-09T04:52:27.900Z,97
2018-06-09T04:53:27.992Z,97
2018-06-09T04:54:27.987Z,97
2018-06-09T04:55:28.033Z,97
2018-06-09T04:56:28.000Z,97
2018-06-09T04:57:28.047Z,97
2018-06-09T04:58:28.018Z,97
2018-06-09T04:59:28.340Z,97
2018-06-09T05:00:28.017Z,97
2018-06-09T05:01:28.045Z,97
2018-06-09T05:02:28.002Z,97
2018-06-09T05:03:28.316Z,97
2018-06-09T05:04:28.230Z,96
2018-06-09T05:05:28.344Z,96
2018-06-09T05:06:28.297Z,96
2018-06-09T05:07:28.006Z,96
2018-06-09T05:08:27.987Z,96
2018-06-09T05:09:28.024Z,95
2018-06-09T05:10:28.047Z,95
2018-06-09T05:11:28.082Z,95
2018-06-09T05:12:28.017Z,95
2018-06-09T05:13:28.040Z,95
2018-06-09T05:14:28.033Z,94
2018-06-09T05:15:28.085Z,94
2018-06-09T05:16:28.032Z,94
2018-06-09T05:17:28.348Z,93
2018-06-09T05:18:28.086Z,93
2018-06-09T05:19:28.056Z,91
2018-06-09T05:20:28.359Z,91
2018-06-09T05:21:28.005Z,91
2018-06-09T05:22:28.267Z,90
2018-06-09T05:23:28.016Z,90
2018-06-09T05:24:28.436Z,88
2018-06-09T05:25:28.114Z,88
2018-06-09T05:26:28.454Z,88
2018-06-09T05:27:28.067Z,87
2018-06-09T05:28:28.005Z,87
2018-06-09T05:29:28.093Z,87
2018-06-09T05:30:28.310Z,87
2018-06-09T05:31:28.308Z,87
2018-06-09T05:32:28.026Z,86
2018-06-09T05:33:28.107Z,86
2018-06-09T05:34:28.017Z,86
2018-06-09T05:35:28.403Z,86
2018-06-09T05:36:28.000Z,86
2018-06-09T05:37:28.030Z,86
2018-06-09T05:38:28.296Z,86
2018-06-09T05:39:28.171Z,86
2018-06-09T05:40:28.064Z,85
2018-06-09T05:41:28.143Z,85
2018-06-09T05:43:28.538Z,86
2018-06-09T05:44:28.449Z,86
2018-06-09T05:45:28.659Z,87
2018-06-09T05:46:28.115Z,87
2018-06-09T05:47:28.151Z,87
2018-06-09T05:48:28.171Z,87
2018-06-09T05:49:28.683Z,87
2018-06-09T05:50:28.310Z,89
2018-06-09T05:51:28.147Z,89
2018-06-09T05:52:28.049Z,89
2018-06-09T05:53:28.355Z,89
2018-06-09T05:54:28.050Z,89
2018-06-09T05:55:28.179Z,89
2018-06-09T05:56:28.065Z,89
2018-06-09T05:57:28.630Z,89
2018-06-09T05:58:28.072Z,89
2018-06-09T05:59:28.095Z,89
2018-06-09T06:00:28.330Z,89
2018-06-09T06:01:28.390Z,89
2018-06-09T06:02:28.076Z,89
2018-06-09T06:03:28.083Z,90
2018-06-09T06:04:28.390Z,90
2018-06-09T06:05:28.119Z,91
2018-06-09T06:06:28.178Z,91
2018-06-09T06:07:28.129Z,91
2018-06-09T06:08:28.180Z,91
2018-06-09T06:09:28.160Z,91
2018-06-09T06:10:28.238Z,91
2018-06-09T06:11:28.454Z,91
2018-06-09T06:12:28.154Z,91
2018-06-09T06:13:28.123Z,91
2018-06-09T06:14:28.177Z,91
2018-06-09T06:15:28.109Z,91
2018-06-09T06:16:28.243Z,91
2018-06-09T06:17:28.184Z,91
2018-06-09T06:18:28.154Z,91
2018-06-09T06:19:28.117Z,91
2018-06-09T06:20:28.146Z,91
2018-06-09T06:21:28.197Z,91
2018-06-09T06:22:28.446Z,91
2018-06-09T06:23:28.148Z,91
2018-06-09T06:24:28.142Z,91
2018-06-09T06:25:28.135Z,91
2018-06-09T06:26:28.127Z,91
2018-06-09T06:27:28.462Z,91
2018-06-09T06:28:28.491Z,91
2018-06-09T06:29:28.168Z,91
2018-06-09T06:30:28.440Z,91
2018-06-09T06:31:28.174Z,90
2018-06-09T06:32:28.185Z,90
2018-06-09T06:33:28.466Z,90
2018-06-09T06:34:28.123Z,90
2018-06-09T06:35:28.144Z,90
2018-06-09T06:36:28.496Z,90
2018-06-09T06:37:28.235Z,90
2018-06-09T06:38:28.453Z,90
2018-06-09T06:39:28.224Z,90
2018-06-09T06:40:28.590Z,90
2018-06-09T06:41:28.197Z,90
2018-06-09T06:42:28.170Z,90
2018-06-09T06:43:28.523Z,89
2018-06-09T06:44:28.124Z,89
2018-06-09T06:45:28.123Z,89
2018-06-09T06:46:28.217Z,89
2018-06-09T06:47:28.252Z,89
2018-06-09T06:48:28.230Z,89
2018-06-09T06:49:28.236Z,89
2018-06-09T06:50:28.502Z,89
2018-06-09T06:51:28.181Z,88
2018-06-09T06:52:28.257Z,88
2018-06-09T06:53:28.262Z,87
2018-06-09T06:54:28.212Z,87
2018-06-09T06:55:28.319Z,87
2018-06-09T06:56:28.518Z,87
2018-06-09T06:57:28.238Z,87
2018-06-09T06:58:28.200Z,87
2018-06-09T06:59:28.186Z,86
2018-06-09T07:00:28.508Z,86
2018-06-09T07:01:28.262Z,86
2018-06-09T07:02:28.219Z,86
2018-06-09T07:03:28.554Z,86
2018-06-09T07:04:28.220Z,85
2018-06-09T07:05:28.237Z,85
2018-06-09T07:06:28.208Z,84
2018-06-09T07:07:28.307Z,84
2018-06-09T07:08:28.211Z,84
2018-06-09T07:09:28.271Z,84
2018-06-09T07:10:28.272Z,84
2018-06-09T07:11:28.254Z,83
2018-06-09T07:12:28.249Z,83
2018-06-09T07:13:28.626Z,83
2018-06-09T07:14:28.267Z,83
2018-06-09T07:15:28.255Z,83
2018-06-09T07:16:28.290Z,82
2018-06-09T07:17:28.531Z,82
2018-06-09T07:18:28.250Z,82
2018-06-09T07:19:28.255Z,81
2018-06-09T07:20:28.285Z,81
2018-06-09T07:21:28.245Z,82
2018-06-09T07:22:28.242Z,82
2018-06-09T07:23:28.248Z,82
2018-06-09T07:24:28.294Z,81
2018-06-09T07:25:28.599Z,81
2018-06-09T07:26:28.262Z,81
2018-06-09T07:27:28.597Z,81
2018-06-09T07:28:28.235Z,81
2018-06-09T07:29:28.244Z,82
2018-06-09T07:30:28.634Z,82
2018-06-09T07:31:28.297Z,82
2018-06-09T07:32:28.289Z,83
2018-06-09T07:33:28.527Z,83
2018-06-09T07:34:28.262Z,82
2018-06-09T07:35:28.327Z,82
2018-06-09T07:36:28.559Z,82
2018-06-09T07:37:28.311Z,79
2018-06-09T07:38:28.278Z,79
2018-06-09T07:39:28.293Z,77
2018-06-09T07:40:28.296Z,77
2018-06-09T07:41:28.349Z,77
2018-06-09T07:42:28.323Z,79
2018-06-09T07:43:28.554Z,79
2018-06-09T07:44:28.282Z,79
2018-06-09T07:45:28.605Z,79
2018-06-09T07:46:28.306Z,79
2018-06-09T07:47:28.319Z,77
2018-06-09T07:48:28.351Z,77
2018-06-09T07:49:28.270Z,77
2018-06-09T07:50:28.608Z,77
2018-06-09T07:51:28.599Z,77
2018-06-09T07:52:28.320Z,77
2018-06-09T07:53:28.312Z,77
2018-06-09T07:54:28.320Z,75
2018-06-09T07:55:28.616Z,75
2018-06-09T07:56:28.315Z,75
2018-06-09T07:57:28.597Z,76
2018-06-09T07:58:28.617Z,76
2018-06-09T08:00:39.005Z,79
2018-06-09T08:01:39.353Z,79
2018-06-09T08:02:39.056Z,78
2018-06-09T08:03:39.378Z,78
2018-06-09T08:04:39.360Z,80
2018-06-09T08:05:39.106Z,80
2018-06-09T08:06:39.064Z,80
2018-06-09T08:07:39.096Z,80
2018-06-09T08:08:39.067Z,80
2018-06-09T08:09:39.085Z,80
2018-06-09T08:10:39.071Z,78
2018-06-09T08:11:39.108Z,78
2018-06-09T08:12:39.357Z,77
2018-06-09T08:13:39.078Z,77
2018-06-09T08:14:39.130Z,77
2018-06-09T08:15:39.105Z,75
2018-06-09T08:16:39.099Z,75
2018-06-09T08:17:39.376Z,73
2018-06-09T08:18:39.111Z,73
2018-06-09T08:19:39.378Z,73
2018-06-09T08:20:39.094Z,71
2018-06-09T08:21:39.114Z,71
2018-06-09T08:22:39.109Z,72
2018-06-09T08:23:39.092Z,72
2018-06-09T08:24:39.151Z,72
2018-06-09T08:25:39.068Z,69
2018-06-09T08:26:39.091Z,69
2018-06-09T08:27:39.099Z,69
2018-06-09T08:28:39.430Z,69
2018-06-09T08:29:39.207Z,69
2018-06-09T08:30:39.054Z,69
2018-06-09T08:31:39.145Z,69
2018-06-09T08:32:39.387Z,72
2018-06-09T08:33:39.068Z,72
2018-06-09T08:34:39.194Z,72
2018-06-09T08:35:39.442Z,73
2018-06-09T08:36:39.208Z,73
2018-06-09T08:37:39.438Z,75
2018-06-09T08:38:39.138Z,75
2018-06-09T08:39:39.137Z,75
2018-06-09T08:40:39.416Z,78
2018-06-09T08:41:39.176Z,78
2018-06-09T08:42:39.146Z,78
2018-06-09T08:43:39.140Z,77
2018-06-09T08:44:39.443Z,77
2018-06-09T08:45:39.160Z,75
2018-06-09T08:46:39.438Z,75
2018-06-09T08:47:39.151Z,75
2018-06-09T08:48:39.201Z,76
2018-06-09T08:49:39.190Z,76
2018-06-09T08:50:39.186Z,76
2018-06-09T08:51:39.199Z,76
2018-06-09T08:52:39.377Z,76
2018-06-09T08:53:39.526Z,75
2018-06-09T08:54:39.236Z,75
2018-06-09T08:55:39.176Z,73
2018-06-09T08:56:39.115Z,73
2018-06-09T08:57:39.166Z,73
2018-06-09T08:58:39.446Z,71
2018-06-09T08:59:39.378Z,71
2018-06-09T09:00:39.132Z,71
2018-06-09T09:01:39.135Z,71
2018-06-09T09:02:39.124Z,71
2018-06-09T09:03:39.098Z,69
2018-06-09T09:04:39.124Z,69
2018-06-09T09:05:39.208Z,70
2018-06-09T09:06:39.152Z,70
2018-06-09T09:07:39.186Z,70
2018-06-09T09:08:39.475Z,73
2018-06-09T09:09:41.342Z,73
2018-06-09T09:10:39.137Z,73
2018-06-09T09:11:39.163Z,73
2018-06-09T09:12:39.135Z,73
2018-06-09T09:13:39.135Z,75
2018-06-09T09:14:39.142Z,75
2018-06-09T09:15:40.098Z,75
2018-06-09T09:16:39.157Z,72
2018-06-09T09:17:39.115Z,72
2018-06-09T09:18:39.112Z,73
2018-06-09T09:19:39.837Z,73
2018-06-09T09:20:39.411Z,73
2018-06-09T09:21:39.416Z,72
2018-06-09T09:22:39.114Z,72
2018-06-09T09:23:39.205Z,70
2018-06-09T09:24:39.131Z,70
2018-06-09T09:25:39.132Z,70
2018-06-09T09:26:39.444Z,68
2018-06-09T09:27:39.433Z,68
2018-06-09T09:28:39.127Z,70
2018-06-09T09:29:39.329Z,70
2018-06-09T09:30:39.144Z,70
2018-06-09T09:31:39.191Z,70
2018-06-09T09:32:39.161Z,70
2018-06-09T09:33:39.167Z,70
2018-06-09T09:34:39.183Z,70
2018-06-09T09:35:39.144Z,70
2018-06-09T09:36:39.438Z,68
2018-06-09T09:37:39.124Z,68
2018-06-09T09:38:39.417Z,66
2018-06-09T09:39:39.133Z,66
2018-06-09T09:40:39.137Z,66
2018-06-09T09:41:39.253Z,63
2018-06-09T09:42:39.456Z,63
2018-06-09T09:43:39.235Z,63
2018-06-09T09:44:39.167Z,64
2018-06-09T09:45:39.155Z,64
2018-06-09T09:46:39.164Z,66
2018-06-09T09:47:39.136Z,66
2018-06-09T09:48:39.200Z,66
2018-06-09T09:49:39.218Z,66
2018-06-09T09:50:39.230Z,66
2018-06-09T09:51:39.209Z,66
2018-06-09T09:52:39.209Z,66
2018-06-09T09:53:39.236Z,66
2018-06-09T09:54:39.259Z,64
2018-06-09T09:55:39.256Z,64
2018-06-09T09:56:39.328Z,64
2018-06-09T09:57:39.213Z,64
2018-06-09T09:58:39.337Z,64
2018-06-09T09:59:39.306Z,63
2018-06-09T10:00:39.244Z,63
2018-06-09T10:01:39.492Z,64
2018-06-09T10:02:39.280Z,64
2018-06-09T10:03:39.919Z,64
2018-06-09T10:04:39.640Z,68
2018-06-09T10:05:39.550Z,68
2018-06-09T10:06:39.242Z,68
2018-06-09T10:07:39.227Z,68
2018-06-09T10:08:55.736Z,68
2018-06-09T10:09:39.285Z,65
2018-06-09T10:10:39.842Z,65
2018-06-09T10:11:39.246Z,65
2018-06-09T10:12:39.243Z,66
2018-06-09T10:13:39.522Z,66
2018-06-09T10:14:39.607Z,66
2018-06-09T10:15:39.294Z,66
2018-06-09T10:16:39.596Z,66
2018-06-09T10:17:39.546Z,67
2018-06-09T10:18:39.246Z,67
2018-06-09T10:19:39.251Z,66
2018-06-09T10:20:39.322Z,66
2018-06-09T10:21:39.289Z,66
2018-06-09T10:22:39.554Z,63
2018-06-09T10:23:39.347Z,63
2018-06-09T10:24:39.599Z,63
2018-06-09T10:25:39.305Z,63
2018-06-09T10:26:39.305Z,63
2018-06-09T10:27:39.275Z,62
2018-06-09T10:28:39.281Z,62
2018-06-09T10:29:39.287Z,62
2018-06-09T10:30:39.281Z,62
2018-06-09T10:31:39.715Z,62
2018-06-09T10:32:39.281Z,62
2018-06-09T10:33:39.360Z,62
2018-06-09T10:34:39.337Z,58
2018-06-09T10:35:39.319Z,58
2018-06-09T10:36:39.323Z,58
2018-06-09T10:37:39.569Z,58
2018-06-09T10:38:39.341Z,58
2018-06-09T10:39:39.269Z,59
2018-06-09T10:40:39.616Z,59
2018-06-09T10:41:39.326Z,59
2018-06-09T10:42:39.349Z,60
2018-06-09T10:43:39.357Z,60
2018-06-09T10:44:39.635Z,60
2018-06-09T10:45:39.332Z,60
2018-06-09T10:46:39.604Z,60
2018-06-09T10:47:39.348Z,62
2018-06-09T10:48:39.605Z,62
2018-06-09T10:49:39.569Z,62
2018-06-09T10:50:39.297Z,62
2018-06-09T10:51:39.301Z,62
2018-06-09T10:52:39.302Z,64
2018-06-09T10:53:39.322Z,64
2018-06-09T10:54:39.381Z,64
2018-06-09T10:55:39.635Z,64
2018-06-09T10:56:39.650Z,64
2018-06-09T10:57:39.432Z,64
2018-06-09T10:58:39.662Z,64
2018-06-09T10:59:39.350Z,64
2018-06-09T11:00:39.376Z,62
2018-06-09T11:01:39.372Z,62
2018-06-09T11:02:39.360Z,61
2018-06-09T11:03:39.361Z,61
2018-06-09T11:04:39.376Z,61
2018-06-09T11:05:39.396Z,61
2018-06-09T11:06:39.343Z,61
2018-06-09T11:07:39.660Z,63
2018-06-09T11:08:39.687Z,63
2018-06-09T11:09:39.386Z,63
2018-06-09T11:10:39.403Z,59
2018-06-09T11:11:39.390Z,59
2018-06-09T11:12:39.417Z,59
2018-06-09T11:13:39.656Z,59
2018-06-09T11:14:39.376Z,59
2018-06-09T11:15:39.401Z,58
2018-06-09T11:16:39.373Z,58
2018-06-09T11:17:39.426Z,58
2018-06-09T11:18:39.370Z,59
2018-06-09T11:19:39.323Z,59
2018-06-09T11:20:39.665Z,60
2018-06-09T11:21:39.394Z,60
2018-06-09T11:22:39.381Z,60
2018-06-09T11:23:39.676Z,62
2018-06-09T11:24:39.666Z,62
2018-06-09T11:25:39.688Z,63
2018-06-09T11:26:39.677Z,63
2018-06-09T11:27:39.379Z,63
2018-06-09T11:28:39.442Z,65
2018-06-09T11:29:39.692Z,65
2018-06-09T11:30:39.399Z,64
2018-06-09T11:31:39.386Z,64
2018-06-09T11:32:39.407Z,64
2018-06-09T11:33:39.418Z,64
2018-06-09T11:34:39.466Z,64
2018-06-09T11:35:39.443Z,65
2018-06-09T11:36:39.395Z,65
2018-06-09T11:37:47.166Z,65
2018-06-09T11:39:48.332Z,65
2018-06-09T11:40:49.481Z,62
2018-06-09T11:41:39.438Z,62
2018-06-09T11:42:39.476Z,62
2018-06-09T11:43:39.467Z,63
2018-06-09T11:44:39.536Z,63
2018-06-09T11:45:39.759Z,63
2018-06-09T11:46:39.474Z,63
2018-06-09T11:47:39.758Z,63
2018-06-09T11:48:39.489Z,62
2018-06-09T11:49:39.505Z,62
2018-06-09T11:50:39.533Z,62
2018-06-09T11:51:39.530Z,60
2018-06-09T11:52:39.515Z,60
2018-06-09T11:53:39.518Z,60
2018-06-09T11:54:39.490Z,60
2018-06-09T11:55:39.524Z,60
2018-06-09T11:56:39.512Z,58
2018-06-09T11:57:39.508Z,58
2018-06-09T11:58:39.607Z,57
2018-06-09T11:59:39.515Z,57
2018-06-09T12:00:39.488Z,57
2018-06-09T12:01:39.603Z,57
2018-06-09T12:02:39.499Z,57
2018-06-09T12:03:39.518Z,56
2018-06-09T12:04:39.767Z,56
2018-06-09T12:05:39.535Z,56
2018-06-09T12:06:39.835Z,55
2018-06-09T12:07:39.508Z,55
2018-06-09T12:08:39.539Z,56
2018-06-09T12:09:39.543Z,56
2018-06-09T12:10:39.501Z,56
2018-06-09T12:11:39.593Z,57
2018-06-09T12:12:39.575Z,57
2018-06-09T12:13:39.532Z,57
2018-06-09T12:14:39.574Z,59
2018-06-09T12:15:39.803Z,59
2018-06-09T12:16:39.783Z,59
2018-06-09T12:17:39.572Z,59
2018-06-09T12:18:39.524Z,59
2018-06-09T12:19:39.549Z,57
2018-06-09T12:20:39.544Z,57
2018-06-09T12:21:39.557Z,54
2018-06-09T12:22:39.834Z,54
2018-06-09T12:23:39.552Z,54
2018-06-09T12:24:39.517Z,54
2018-06-09T12:25:39.573Z,54
2018-06-09T12:26:39.604Z,54
2018-06-09T12:27:39.561Z,54
2018-06-09T12:28:39.589Z,54
2018-06-09T12:29:39.863Z,56
2018-06-09T12:30:39.539Z,56
2018-06-09T12:31:39.851Z,57
2018-06-09T12:32:39.675Z,57
2018-06-09T12:33:39.555Z,57
2018-06-09T12:34:39.550Z,57
2018-06-09T12:35:39.837Z,57
2018-06-09T12:36:39.840Z,55
2018-06-09T12:37:39.598Z,55
2018-06-09T12:38:39.891Z,55
2018-06-09T12:39:39.874Z,54
2018-06-09T12:40:39.599Z,54
2018-06-09T12:41:39.570Z,55
2018-06-09T12:42:39.638Z,55
2018-06-09T12:43:39.868Z,55
2018-06-09T12:44:39.583Z,56
2018-06-09T12:45:39.596Z,56
2018-06-09T12:46:39.617Z,56
2018-06-09T12:47:39.896Z,58
2018-06-09T12:48:39.684Z,58
2018-06-09T12:49:39.577Z,60
2018-06-09T12:50:40.060Z,60
2018-06-09T12:51:39.890Z,60
2018-06-09T12:52:39.625Z,60
2018-06-09T12:53:39.928Z,60
2018-06-09T12:54:39.649Z,56
2018-06-09T12:55:39.624Z,56
2018-06-09T12:56:39.602Z,56
2018-06-09T12:57:39.643Z,56
2018-06-09T12:58:39.623Z,56
2018-06-09T12:59:39.665Z,54
2018-06-09T13:00:39.597Z,54
2018-06-09T13:01:39.628Z,54
2018-06-09T13:02:39.601Z,55
2018-06-09T13:03:39.882Z,55
2018-06-09T13:04:39.875Z,56
2018-06-09T13:05:39.581Z,56
2018-06-09T13:06:39.580Z,56
2018-06-09T13:07:39.574Z,54
2018-06-09T13:08:39.609Z,54
2018-06-09T13:09:39.595Z,56
2018-06-09T13:10:39.622Z,56
2018-06-09T13:11:39.631Z,56
2018-06-09T13:12:39.960Z,58
2018-06-09T13:13:39.871Z,58
2018-06-09T13:14:39.625Z,58
2018-06-09T13:15:39.618Z,58
2018-06-09T13:16:39.672Z,58
2018-06-09T13:17:39.641Z,56
2018-06-09T13:18:39.657Z,56
2018-06-09T13:19:39.693Z,56
2018-06-09T13:20:39.601Z,56
2018-06-09T13:21:39.560Z,56
2018-06-09T13:22:39.629Z,54
2018-06-09T13:23:39.633Z,54
2018-06-09T13:24:39.566Z,54
2018-06-09T13:25:39.668Z,53
2018-06-09T13:26:39.665Z,53
2018-06-09T13:27:39.648Z,53
2018-06-09T13:28:39.638Z,53
2018-06-09T13:29:39.625Z,53
2018-06-09T13:30:39.604Z,52
2018-06-09T13:31:39.639Z,52
2018-06-09T13:32:39.602Z,52
2018-06-09T13:33:39.614Z,52
2018-06-09T13:34:39.643Z,52
2018-06-09T13:35:39.969Z,51
2018-06-09T13:36:39.641Z,51
2018-06-09T13:37:39.934Z,53
2018-06-09T13:38:39.696Z,53
2018-06-09T13:39:40.334Z,53
2018-06-09T13:40:39.638Z,50
2018-06-09T13:41:39.946Z,50
2018-06-09T13:42:40.033Z,49
2018-06-09T13:43:39.673Z,49
2018-06-09T13:44:39.598Z,49
2018-06-09T13:45:39.664Z,49
2018-06-09T13:46:40.439Z,49
2018-06-09T13:47:39.989Z,49
2018-06-09T13:48:39.943Z,47
2018-06-09T13:49:40.000Z,47
2018-06-09T13:50:39.917Z,47
2018-06-09T13:51:39.689Z,47
2018-06-09T13:52:39.668Z,47
2018-06-09T13:53:39.969Z,47
2018-06-09T13:54:39.753Z,47
2018-06-09T13:55:39.639Z,47
2018-06-09T13:56:39.679Z,47
2018-06-09T13:57:39.689Z,47
2018-06-09T13:58:39.665Z,52
2018-06-09T13:59:39.740Z,52
2018-06-09T14:00:39.674Z,55
2018-06-09T14:01:39.663Z,55
2018-06-09T14:02:39.800Z,55
2018-06-09T14:03:39.690Z,55
2018-06-09T14:04:39.734Z,55
2018-06-09T14:05:39.995Z,55
2018-06-09T14:06:39.691Z,55
2018-06-09T14:07:39.995Z,55
2018-06-09T14:08:40.014Z,61
2018-06-09T14:09:40.961Z,61
2018-06-09T14:10:39.700Z,62
2018-06-09T14:11:39.706Z,62
2018-06-09T14:12:39.804Z,62
2018-06-09T14:13:39.778Z,63
2018-06-09T14:14:39.729Z,63
2018-06-09T14:15:47.783Z,63
2018-06-09T14:16:39.763Z,64
2018-06-09T14:17:40.022Z,64
2018-06-09T14:18:39.730Z,65